Time;durP1;ratioP1;P1;durP2;ratioP2;P2;SDS_P1;SDS_P2;PMS_P1;PMS_P2;Temp;Humidity;BMP_temperature;BMP_pressure;BME280_temperature;BME280_humidity;BME280_pressure;Samples;Min_cycle;Max_cycle;Signal;HPM_P1;HPM_P2
2023/12/08 00:02:17;;;;;;;66.50;29.90;;;;;;;0.56;80.96;100666.52;130772;1255;200312;-81
2023/12/08 00:05:22;;;;;;;59.90;28.30;;;;;;;0.45;81.06;100661.48;130822;1258;106662;-84
2023/12/08 00:08:28;;;;;;;60.00;28.80;;;;;;;0.42;81.09;100653.98;130771;1258;108382;-83
2023/12/08 00:11:33;;;;;;;67.70;29.30;;;;;;;0.38;81.08;100644.52;130764;1258;108634;-84
2023/12/08 00:14:39;;;;;;;65.80;29.60;;;;;;;0.32;81.09;100645.54;130769;1258;106713;-83
2023/12/08 00:17:44;;;;;;;74.20;32.70;;;;;;;0.29;81.27;100643.39;130825;1258;108665;-82
2023/12/08 00:20:50;;;;;;;78.90;32.00;;;;;;;0.31;81.40;100643.63;130849;1255;109873;-83
2023/12/08 00:23:55;;;;;;;60.00;28.10;;;;;;;0.38;81.25;100639.46;130881;1259;106924;-83
2023/12/08 00:27:01;;;;;;;63.00;29.50;;;;;;;0.44;81.25;100646.52;130794;1258;108771;-83
2023/12/08 00:30:08;;;;;;;60.30;28.10;;;;;;;0.47;80.89;100655.81;130829;1255;105877;-83
2023/12/08 00:33:14;;;;;;;69.50;31.90;;;;;;;0.45;81.05;100662.03;130868;1258;107658;-83
2023/12/08 00:36:21;;;;;;;59.60;28.80;;;;;;;0.42;81.11;100667.30;130873;1255;108696;-83
2023/12/08 00:39:26;;;;;;;59.10;28.50;;;;;;;0.40;81.09;100665.94;130808;1258;108547;-82
2023/12/08 00:42:32;;;;;;;57.20;28.50;;;;;;;0.42;81.05;100664.82;130804;1254;108687;-83
2023/12/08 00:45:37;;;;;;;58.40;27.10;;;;;;;0.39;80.89;100665.10;130847;1256;108719;-83
2023/12/08 00:48:43;;;;;;;60.20;28.60;;;;;;;0.37;80.87;100668.86;130825;1255;108662;-81
2023/12/08 00:51:48;;;;;;;58.90;26.90;;;;;;;0.35;80.82;100670.77;130824;1256;107672;-83
2023/12/08 00:54:54;;;;;;;58.70;28.20;;;;;;;0.30;80.77;100676.45;130758;1256;106723;-81
2023/12/08 00:57:59;;;;;;;59.50;27.70;;;;;;;0.26;80.73;100690.27;130897;1254;107791;-83
2023/12/08 01:01:05;;;;;;;56.50;28.50;;;;;;;0.22;80.87;100704.45;130860;1255;107119;-82
2023/12/08 01:04:11;;;;;;;79.60;35.50;;;;;;;0.16;80.73;100702.83;130939;1255;107684;-83
2023/12/08 01:07:16;;;;;;;65.60;29.10;;;;;;;0.11;80.85;100693.66;130749;1258;108372;-83
2023/12/08 01:10:22;;;;;;;62.70;27.40;;;;;;;0.09;81.05;100683.77;130831;1258;108034;-83
2023/12/08 01:13:27;;;;;;;52.80;25.30;;;;;;;0.14;80.91;100684.55;130815;1258;108506;-83
2023/12/08 01:16:34;;;;;;;53.40;26.10;;;;;;;0.20;80.95;100680.23;130783;1256;106643;-83
2023/12/08 01:19:39;;;;;;;62.60;28.00;;;;;;;0.30;80.96;100682.38;130826;1256;107062;-80
2023/12/08 01:22:45;;;;;;;58.80;28.40;;;;;;;0.37;80.69;100681.83;130730;1256;106331;-83
2023/12/08 01:25:51;;;;;;;58.70;29.10;;;;;;;0.39;80.44;100689.27;130810;1256;108345;-82
2023/12/08 01:28:57;;;;;;;61.00;29.90;;;;;;;0.34;80.50;100690.37;130837;1257;106645;-82
2023/12/08 01:32:02;;;;;;;57.90;27.20;;;;;;;0.31;80.49;100688.62;130813;1256;107056;-82
2023/12/08 01:35:09;;;;;;;57.00;28.70;;;;;;;0.26;80.23;100678.73;130823;1256;106952;-83
2023/12/08 01:38:14;;;;;;;56.00;28.00;;;;;;;0.15;80.29;100673.49;130791;1256;107443;-82
2023/12/08 01:41:20;;;;;;;54.20;26.50;;;;;;;0.11;80.54;100673.89;130925;1254;108580;-82
2023/12/08 01:44:26;;;;;;;57.60;27.80;;;;;;;0.09;80.44;100668.23;130838;1259;108569;-82
2023/12/08 01:47:32;;;;;;;56.50;27.50;;;;;;;0.03;80.34;100666.02;130785;1258;107724;-82
2023/12/08 01:50:39;;;;;;;55.40;26.80;;;;;;;-0.05;80.31;100668.70;130774;1256;105516;-83
2023/12/08 01:53:47;;;;;;;53.70;25.80;;;;;;;-0.11;80.47;100666.20;130895;1256;107714;-82
2023/12/08 01:56:52;;;;;;;59.20;26.90;;;;;;;-0.11;80.40;100672.52;130892;1256;107219;-83
2023/12/08 01:59:59;;;;;;;60.50;27.30;;;;;;;-0.12;80.40;100672.38;130877;1258;107109;-83
2023/12/08 02:03:05;;;;;;;57.40;25.70;;;;;;;-0.08;80.71;100666.23;130881;1258;107339;-82
2023/12/08 02:06:12;;;;;;;52.50;24.20;;;;;;;0.02;80.51;100667.32;130859;1258;108485;-82
2023/12/08 02:09:17;;;;;;;57.70;26.70;;;;;;;0.10;80.68;100663.61;130853;1256;108366;-82
2023/12/08 02:12:23;;;;;;;55.30;26.10;;;;;;;0.16;80.44;100663.30;130828;1256;106318;-84
2023/12/08 02:15:29;;;;;;;54.50;28.00;;;;;;;0.22;80.39;100660.22;130806;1256;107622;-84
2023/12/08 02:18:35;;;;;;;57.10;26.90;;;;;;;0.22;80.10;100658.44;130856;1256;107924;-83
2023/12/08 02:21:42;;;;;;;57.40;27.60;;;;;;;0.20;80.23;100664.33;130852;1258;106270;-82
2023/12/08 02:24:47;;;;;;;61.90;30.20;;;;;;;0.18;80.16;100668.77;130832;1254;108861;-82
2023/12/08 02:27:53;;;;;;;60.00;29.00;;;;;;;0.17;80.17;100670.59;130825;1256;108658;-82
2023/12/08 02:31:00;;;;;;;58.30;28.10;;;;;;;0.17;80.29;100675.65;130861;1256;107580;-82
2023/12/08 02:34:08;;;;;;;57.40;26.40;;;;;;;0.17;80.26;100677.44;130905;1258;107610;-82
2023/12/08 02:37:18;;;;;;;58.40;27.70;;;;;;;0.13;80.28;100682.17;130877;1255;107189;-82
2023/12/08 02:40:23;;;;;;;55.70;27.30;;;;;;;0.12;80.33;100680.66;130820;1256;107452;-82
2023/12/08 02:43:29;;;;;;;60.10;28.20;;;;;;;0.10;80.27;100683.92;130848;1258;107652;-82
2023/12/08 02:46:35;;;;;;;65.00;28.00;;;;;;;0.06;80.39;100684.96;130800;1258;107718;-82
2023/12/08 02:49:40;;;;;;;58.90;27.50;;;;;;;0.03;80.40;100688.80;130837;1256;107041;-82
2023/12/08 02:52:46;;;;;;;70.00;29.10;;;;;;;-0.01;80.55;100683.55;130816;1258;107760;-83
2023/12/08 02:55:51;;;;;;;66.20;27.10;;;;;;;-0.05;80.53;100687.77;130838;1258;106900;-82
2023/12/08 02:58:57;;;;;;;71.90;28.10;;;;;;;-0.07;80.57;100680.36;130806;1254;107581;-82
2023/12/08 03:02:02;;;;;;;53.50;23.20;;;;;;;-0.05;80.75;100679.16;130893;1254;106501;-84
2023/12/08 03:05:09;;;;;;;63.20;27.80;;;;;;;0.03;80.73;100685.45;130863;1258;108785;-83
2023/12/08 03:08:15;;;;;;;60.50;27.70;;;;;;;0.10;80.61;100681.95;130829;1258;106447;-82
2023/12/08 03:11:20;;;;;;;64.60;28.10;;;;;;;0.15;80.52;100678.40;130863;1258;108719;-82
2023/12/08 03:14:26;;;;;;;66.20;29.10;;;;;;;0.19;80.61;100672.06;130898;1258;107737;-84
2023/12/08 03:17:31;;;;;;;62.90;28.40;;;;;;;0.21;80.55;100670.59;130866;1256;107314;-82
2023/12/08 03:20:37;;;;;;;63.70;27.90;;;;;;;0.20;80.52;100673.42;130848;1257;106930;-82
2023/12/08 03:23:42;;;;;;;64.40;28.20;;;;;;;0.19;80.58;100677.34;130846;1256;107377;-83
2023/12/08 03:26:48;;;;;;;60.90;28.20;;;;;;;0.15;80.51;100672.45;130763;1258;108598;-82
2023/12/08 03:29:54;;;;;;;62.20;27.70;;;;;;;0.10;80.62;100664.31;131021;1256;107076;-82
2023/12/08 03:32:59;;;;;;;65.30;28.30;;;;;;;0.06;80.64;100664.86;131257;1256;107626;-81
2023/12/08 03:36:06;;;;;;;66.70;28.40;;;;;;;-0.01;80.89;100664.13;130788;1256;108738;-81
2023/12/08 03:39:12;;;;;;;63.30;27.80;;;;;;;-0.09;80.90;100670.64;130828;1258;106946;-80
2023/12/08 03:42:17;;;;;;;71.60;27.90;;;;;;;-0.14;80.87;100673.69;130765;1258;107699;-82
2023/12/08 03:45:23;;;;;;;66.70;28.20;;;;;;;-0.16;81.02;100668.90;131095;1254;106428;-81
2023/12/08 03:48:28;;;;;;;68.00;27.70;;;;;;;-0.15;81.28;100669.71;131024;1258;109244;-81
2023/12/08 03:51:34;;;;;;;59.60;24.70;;;;;;;-0.14;81.27;100669.12;130919;1256;108626;-81
2023/12/08 03:54:40;;;;;;;61.90;27.20;;;;;;;-0.04;81.22;100663.06;131606;1255;106575;-82
2023/12/08 03:57:46;;;;;;;66.70;29.40;;;;;;;0.06;81.16;100661.52;130823;1267;108390;-80
2023/12/08 04:00:51;;;;;;;61.00;27.20;;;;;;;0.12;81.01;100661.58;130787;1258;106967;-80
2023/12/08 04:03:57;;;;;;;70.00;29.80;;;;;;;0.15;80.88;100660.71;130913;1258;107674;-80
2023/12/08 04:07:02;;;;;;;71.20;30.00;;;;;;;0.17;80.94;100661.67;130873;1256;108694;-81
2023/12/08 04:10:09;;;;;;;100.50;36.10;;;;;;;0.20;80.72;100662.73;130908;1258;107686;-80
2023/12/08 04:13:15;;;;;;;88.20;33.60;;;;;;;0.19;80.65;100660.88;130799;1258;106413;-80
2023/12/08 04:16:20;;;;;;;83.70;32.80;;;;;;;0.14;80.76;100653.78;130847;1256;107293;-81
2023/12/08 04:19:26;;;;;;;85.00;34.20;;;;;;;0.09;80.69;100655.11;130991;1258;107152;-81
2023/12/08 04:22:32;;;;;;;74.50;29.90;;;;;;;0.04;80.78;100654.80;130933;1258;108750;-80
2023/12/08 04:25:37;;;;;;;75.60;31.00;;;;;;;-0.03;80.85;100648.65;130855;1258;107779;-79
2023/12/08 04:28:43;;;;;;;64.90;29.50;;;;;;;-0.06;80.68;100641.83;130794;1258;108537;-81
2023/12/08 04:31:49;;;;;;;66.90;29.80;;;;;;;-0.11;80.84;100637.71;130817;1258;107055;-81
2023/12/08 04:34:54;;;;;;;70.50;28.50;;;;;;;-0.17;80.72;100634.48;130896;1258;107283;-80
2023/12/08 04:38:00;;;;;;;71.00;29.70;;;;;;;-0.27;80.94;100637.41;130824;1256;108748;-80
2023/12/08 04:41:06;;;;;;;62.10;26.80;;;;;;;-0.34;81.05;100633.06;130887;1258;107174;-81
2023/12/08 04:44:11;;;;;;;54.40;24.50;;;;;;;-0.29;80.87;100630.86;130855;1256;106648;-80
2023/12/08 04:47:17;;;;;;;60.20;28.00;;;;;;;-0.20;80.99;100627.29;130855;1259;107225;-79
2023/12/08 04:50:22;;;;;;;60.00;26.60;;;;;;;-0.12;80.75;100629.01;130773;1256;107728;-80
2023/12/08 04:53:28;;;;;;;63.10;28.60;;;;;;;-0.10;80.75;100620.88;130847;1258;106743;-79
2023/12/08 04:56:33;;;;;;;60.50;27.60;;;;;;;-0.11;80.48;100623.88;130801;1257;107636;-81
2023/12/08 04:59:40;;;;;;;62.10;28.20;;;;;;;-0.14;80.58;100634.17;130907;1256;106974;-80
2023/12/08 05:02:47;;;;;;;63.00;29.60;;;;;;;-0.16;80.79;100642.51;130955;1258;107706;-80
2023/12/08 05:05:53;;;;;;;62.30;29.00;;;;;;;-0.20;80.57;100642.48;130946;1258;106303;-80
2023/12/08 05:08:58;;;;;;;59.30;27.60;;;;;;;-0.27;80.59;100640.78;130810;1256;107664;-81
2023/12/08 05:12:04;;;;;;;59.60;27.60;;;;;;;-0.32;80.68;100642.40;130778;1258;106513;-82
2023/12/08 05:15:11;;;;;;;64.40;29.60;;;;;;;-0.36;80.75;100640.31;130901;1258;107557;-80
2023/12/08 05:18:17;;;;;;;63.90;29.00;;;;;;;-0.36;80.82;100639.28;130878;1258;109353;-80
2023/12/08 05:21:22;;;;;;;63.20;29.00;;;;;;;-0.39;80.78;100634.33;130764;1256;108362;-82
2023/12/08 05:24:28;;;;;;;64.30;28.50;;;;;;;-0.41;80.77;100635.47;130836;1258;107758;-80
2023/12/08 05:27:33;;;;;;;71.50;29.20;;;;;;;-0.45;80.86;100631.63;130786;1255;106607;-81
2023/12/08 05:30:39;;;;;;;68.10;27.80;;;;;;;-0.49;80.74;100630.23;130800;1258;107482;-80
2023/12/08 05:33:44;;;;;;;64.30;28.60;;;;;;;-0.48;80.79;100631.77;130804;1259;107071;-80
2023/12/08 05:36:50;;;;;;;58.70;25.40;;;;;;;-0.44;80.83;100631.58;130788;1258;107059;-79
2023/12/08 05:39:56;;;;;;;63.50;27.70;;;;;;;-0.35;80.80;100623.67;130842;1256;106457;-80
2023/12/08 05:43:01;;;;;;;56.80;27.40;;;;;;;-0.29;80.46;100624.59;130835;1261;107448;-79
2023/12/08 05:46:07;;;;;;;90.30;42.20;;;;;;;-0.25;80.61;100626.83;130836;1258;106399;-80
2023/12/08 05:49:12;;;;;;;68.00;30.40;;;;;;;-0.24;80.48;100626.26;130817;1254;107425;-79
2023/12/08 05:52:18;;;;;;;69.70;29.40;;;;;;;-0.23;80.47;100625.20;130752;1261;106477;-79
2023/12/08 05:55:23;;;;;;;67.60;31.60;;;;;;;-0.23;80.39;100623.08;130669;1256;108590;-78
2023/12/08 05:58:29;;;;;;;64.40;29.40;;;;;;;-0.28;80.36;100619.98;130707;1258;107810;-78
2023/12/08 06:01:34;;;;;;;72.30;30.70;;;;;;;-0.32;80.32;100618.79;130880;1256;109514;-80
2023/12/08 06:04:40;;;;;;;82.70;35.10;;;;;;;-0.36;80.45;100614.45;130743;1258;108066;-78
2023/12/08 06:07:45;;;;;;;69.90;30.10;;;;;;;-0.40;80.43;100619.34;130724;1257;107616;-79
2023/12/08 06:10:51;;;;;;;72.60;30.70;;;;;;;-0.48;80.51;100619.02;130575;1264;108405;-79
2023/12/08 06:13:57;;;;;;;65.50;28.30;;;;;;;-0.55;80.45;100624.08;130612;1260;108613;-79
2023/12/08 06:17:03;;;;;;;75.80;33.70;;;;;;;-0.56;80.58;100625.70;130569;1256;107402;-79
2023/12/08 06:20:10;;;;;;;89.80;35.70;;;;;;;-0.60;80.54;100625.71;130556;1258;108669;-78
2023/12/08 06:23:16;;;;;;;177.60;57.70;;;;;;;-0.66;80.43;100624.97;130667;1258;106751;-78
2023/12/08 06:26:21;;;;;;;156.40;52.00;;;;;;;-0.66;80.83;100630.39;130595;1256;107672;-78
2023/12/08 06:29:27;;;;;;;64.50;28.30;;;;;;;-0.58;80.72;100632.79;130614;1257;107721;-79
2023/12/08 06:32:32;;;;;;;234.60;69.00;;;;;;;-0.48;80.76;100631.94;130547;1257;107650;-77
2023/12/08 06:35:38;;;;;;;100.70;36.40;;;;;;;-0.39;80.58;100632.98;130567;1258;106522;-77
2023/12/08 06:38:43;;;;;;;126.70;45.80;;;;;;;-0.34;80.49;100635.35;130623;1265;107836;-78
2023/12/08 06:41:49;;;;;;;217.70;84.00;;;;;;;-0.35;80.42;100633.27;130573;1269;105896;-79
2023/12/08 06:44:55;;;;;;;200.80;87.90;;;;;;;-0.37;80.46;100625.67;130648;1261;106941;-78
2023/12/08 06:48:00;;;;;;;79.30;36.20;;;;;;;-0.39;80.29;100626.84;130673;1255;107542;-78
2023/12/08 06:51:06;;;;;;;78.40;35.10;;;;;;;-0.49;80.25;100629.54;130589;1259;108673;-78
2023/12/08 06:54:12;;;;;;;74.00;32.80;;;;;;;-0.51;80.52;100628.29;130637;1256;108663;-77
2023/12/08 06:57:17;;;;;;;64.90;29.10;;;;;;;-0.49;80.53;100634.10;130568;1268;106770;-79
2023/12/08 07:00:23;;;;;;;67.40;31.70;;;;;;;-0.47;80.47;100631.75;130701;1258;108659;-77
2023/12/08 07:03:29;;;;;;;66.00;29.80;;;;;;;-0.46;80.52;100638.33;130738;1254;106346;-79
2023/12/08 07:06:34;;;;;;;71.30;31.40;;;;;;;-0.44;80.50;100639.27;130594;1267;107821;-79
2023/12/08 07:09:40;;;;;;;79.30;32.80;;;;;;;-0.42;80.41;100638.14;130573;1260;109122;-77
2023/12/08 07:12:46;;;;;;;71.50;29.30;;;;;;;-0.43;80.46;100636.98;130652;1267;108756;-79
2023/12/08 07:15:52;;;;;;;70.60;29.90;;;;;;;-0.44;80.43;100634.58;130611;1259;108659;-78
2023/12/08 07:18:57;;;;;;;65.60;26.10;;;;;;;-0.40;80.53;100642.43;130626;1258;107725;-78
2023/12/08 07:22:03;;;;;;;71.90;30.40;;;;;;;-0.30;80.46;100644.23;130601;1262;108679;-75
2023/12/08 07:25:12;;;;;;;73.50;31.70;;;;;;;-0.22;80.43;100640.84;130777;1259;107211;-83
2023/12/08 07:28:18;;;;;;;63.40;28.90;;;;;;;-0.14;80.19;100640.79;130962;1268;108758;-84
2023/12/08 07:31:23;;;;;;;64.00;30.20;;;;;;;-0.12;80.12;100643.84;130852;1258;108764;-86
2023/12/08 07:34:29;;;;;;;65.40;30.10;;;;;;;-0.10;80.22;100640.59;130905;1255;107710;-85
2023/12/08 07:37:34;;;;;;;63.30;30.40;;;;;;;-0.06;80.18;100636.90;130957;1259;108076;-84
2023/12/08 07:40:40;;;;;;;63.20;29.40;;;;;;;-0.08;79.96;100633.34;130860;1254;107067;-84
2023/12/08 07:43:46;;;;;;;69.30;31.10;;;;;;;-0.07;80.06;100632.59;130836;1259;107247;-85
2023/12/08 07:46:51;;;;;;;65.20;30.60;;;;;;;-0.05;80.03;100636.20;130885;1259;107065;-85
2023/12/08 07:49:57;;;;;;;63.50;28.80;;;;;;;-0.04;80.02;100639.96;130980;1260;109358;-84
2023/12/08 07:53:03;;;;;;;71.50;31.60;;;;;;;-0.01;80.03;100642.98;130865;1269;107509;-85
2023/12/08 07:56:11;;;;;;;63.80;30.30;;;;;;;0.00;79.99;100651.47;130878;1267;107081;-84
2023/12/08 07:59:17;;;;;;;66.10;30.30;;;;;;;0.02;79.80;100655.27;130853;1254;106483;-83
2023/12/08 08:02:23;;;;;;;66.70;29.40;;;;;;;0.04;79.90;100656.56;130927;1260;107692;-83
2023/12/08 08:05:28;;;;;;;64.50;29.30;;;;;;;0.03;79.93;100655.70;130771;1261;108609;-85
2023/12/08 08:08:35;;;;;;;71.70;30.40;;;;;;;0.03;80.02;100651.34;130793;1264;107677;-84
2023/12/08 08:11:41;;;;;;;68.00;30.50;;;;;;;0.05;79.80;100642.52;130791;1256;108672;-84
2023/12/08 08:14:47;;;;;;;66.00;28.60;;;;;;;0.07;79.87;100639.81;130852;1260;107879;-83
2023/12/08 08:17:52;;;;;;;60.80;26.70;;;;;;;0.18;79.92;100635.55;130970;1255;106924;-85
2023/12/08 08:20:58;;;;;;;63.60;29.60;;;;;;;0.33;80.02;100638.49;131048;1267;108086;-85
2023/12/08 08:24:03;;;;;;;67.70;31.60;;;;;;;0.46;79.68;100635.20;130820;1259;107242;-85
2023/12/08 08:27:10;;;;;;;62.10;30.40;;;;;;;0.55;79.56;100633.83;130979;1260;106254;-82
2023/12/08 08:30:16;;;;;;;65.80;30.60;;;;;;;0.60;79.42;100630.77;130793;1268;107301;-85
2023/12/08 08:33:22;;;;;;;67.20;30.40;;;;;;;0.63;79.43;100631.52;130925;1260;105726;-84
2023/12/08 08:36:28;;;;;;;66.70;30.00;;;;;;;0.64;79.38;100630.95;130908;1257;107762;-85
2023/12/08 08:39:33;;;;;;;63.70;29.40;;;;;;;0.68;79.31;100635.80;130977;1258;107566;-85
2023/12/08 08:42:39;;;;;;;78.80;33.60;;;;;;;0.70;79.21;100630.77;130885;1260;106477;-84
2023/12/08 08:45:45;;;;;;;110.60;40.90;;;;;;;0.72;78.90;100632.46;130957;1259;107104;-84
2023/12/08 08:48:54;;;;;;;86.50;35.70;;;;;;;0.66;78.96;100623.84;130865;1260;108460;-85
2023/12/08 08:52:00;;;;;;;74.00;33.90;;;;;;;0.71;79.04;100642.28;130897;1260;107773;-84
2023/12/08 08:55:07;;;;;;;64.20;31.70;;;;;;;0.70;79.07;100642.88;130868;1260;108637;-84
2023/12/08 08:58:13;;;;;;;61.20;28.90;;;;;;;0.65;78.79;100642.59;131007;1265;108562;-85
2023/12/08 09:01:18;;;;;;;59.30;29.00;;;;;;;0.64;78.82;100643.86;130925;1254;108531;-84
2023/12/08 09:04:24;;;;;;;57.90;28.70;;;;;;;0.64;78.76;100627.09;130914;1260;106751;-85
2023/12/08 09:07:30;;;;;;;57.40;28.70;;;;;;;0.61;78.70;100620.42;130769;1259;106624;-82
2023/12/08 09:10:35;;;;;;;61.20;30.20;;;;;;;0.62;78.82;100619.33;131054;1258;108720;-85
2023/12/08 09:13:41;;;;;;;58.90;28.50;;;;;;;0.61;78.66;100615.86;130998;1261;108894;-85
2023/12/08 09:16:48;;;;;;;55.90;29.20;;;;;;;0.63;78.73;100617.89;130873;1260;106907;-85
2023/12/08 09:19:56;;;;;;;58.80;29.10;;;;;;;0.67;78.60;100620.27;131003;1255;106902;-85
2023/12/08 09:23:02;;;;;;;56.60;28.30;;;;;;;0.69;78.74;100620.33;130895;1254;108628;-84
2023/12/08 09:26:07;;;;;;;56.20;27.70;;;;;;;0.74;78.59;100621.30;130926;1255;107829;-84
2023/12/08 09:29:13;;;;;;;65.60;28.50;;;;;;;0.78;78.68;100626.34;131251;1254;107875;-85
2023/12/08 09:32:19;;;;;;;62.70;28.50;;;;;;;0.79;78.43;100620.48;130968;1254;106653;-85
2023/12/08 09:35:25;;;;;;;58.70;27.20;;;;;;;0.88;78.66;100615.33;131003;1255;108599;-86
2023/12/08 09:38:30;;;;;;;60.30;29.50;;;;;;;0.99;78.49;100612.09;131223;1260;107741;-84
2023/12/08 09:41:38;;;;;;;61.00;28.90;;;;;;;1.12;78.42;100610.52;131122;1254;106826;-85
2023/12/08 09:44:44;;;;;;;64.00;30.60;;;;;;;1.23;78.32;100601.67;130957;1261;108616;-86
2023/12/08 09:47:53;;;;;;;55.80;29.00;;;;;;;1.33;78.06;100604.79;130944;1267;107688;-85
2023/12/08 09:51:03;;;;;;;65.00;30.00;;;;;;;1.40;77.99;100603.36;131181;1260;106162;-83
2023/12/08 09:54:11;;;;;;;61.10;30.30;;;;;;;1.45;77.59;100602.38;130865;1259;106868;-86
2023/12/08 09:57:19;;;;;;;61.40;29.60;;;;;;;1.45;77.42;100599.55;130841;1268;108651;-84
2023/12/08 10:00:25;;;;;;;57.80;28.70;;;;;;;1.43;77.46;100589.48;130834;1259;107744;-84
2023/12/08 10:03:31;;;;;;;62.30;30.40;;;;;;;1.47;77.88;100573.52;130737;1260;108901;-84
2023/12/08 10:06:39;;;;;;;59.70;29.50;;;;;;;1.51;77.68;100570.67;130945;1254;106506;-84
2023/12/08 10:09:45;;;;;;;63.40;31.20;;;;;;;1.50;77.37;100576.50;131107;1269;106657;-85
2023/12/08 10:12:50;;;;;;;64.20;30.20;;;;;;;1.45;77.24;100566.09;131264;1254;106686;-85
2023/12/08 10:15:57;;;;;;;64.10;31.20;;;;;;;1.42;77.39;100552.09;131327;1254;108575;-86
2023/12/08 10:19:09;;;;;;;62.70;31.20;;;;;;;1.44;77.30;100552.67;131234;1254;108682;-85
2023/12/08 10:22:13;;;;;;;;;;;;;;;1.49;77.44;100555.38;131114;1257;108806;-85
2023/12/08 10:25:21;;;;;;;54.30;27.00;;;;;;;1.55;77.28;100560.62;131099;1259;105862;-85
2023/12/08 10:28:26;;;;;;;57.80;28.30;;;;;;;1.56;76.92;100574.41;130905;1257;108589;-85
2023/12/08 10:31:32;;;;;;;60.40;29.70;;;;;;;1.54;76.99;100582.04;130972;1255;108704;-85
2023/12/08 10:34:39;;;;;;;61.30;30.10;;;;;;;1.53;76.77;100562.79;130955;1260;108638;-84
2023/12/08 10:37:46;;;;;;;59.00;29.70;;;;;;;1.48;76.94;100550.83;130967;1259;106984;-85
2023/12/08 10:40:53;;;;;;;56.00;28.90;;;;;;;1.50;76.76;100552.27;130905;1254;106320;-85
2023/12/08 10:43:58;;;;;;;57.20;29.30;;;;;;;1.54;76.96;100543.14;130838;1260;108619;-85
2023/12/08 10:47:04;;;;;;;58.10;28.80;;;;;;;1.51;76.76;100531.55;130833;1254;107550;-84
2023/12/08 10:50:11;;;;;;;57.90;30.30;;;;;;;1.52;76.74;100537.44;131199;1260;107712;-83
2023/12/08 10:53:18;;;;;;;58.10;30.10;;;;;;;1.55;77.03;100532.20;131129;1254;106451;-85
2023/12/08 10:56:24;;;;;;;63.30;31.60;;;;;;;1.63;76.85;100530.35;131133;1259;106862;-85
2023/12/08 10:59:31;;;;;;;60.40;30.00;;;;;;;1.63;76.40;100532.29;131009;1260;107714;-85
2023/12/08 11:02:40;;;;;;;63.30;30.80;;;;;;;1.63;76.29;100527.21;131335;1254;108497;-85
2023/12/08 11:05:50;;;;;;;63.30;31.80;;;;;;;1.65;76.33;100533.78;131101;1260;106883;-84
2023/12/08 11:08:58;;;;;;;65.50;31.80;;;;;;;1.65;76.47;100530.25;131208;1260;108748;-86
2023/12/08 11:12:05;;;;;;;63.40;30.80;;;;;;;1.69;76.72;100528.45;130875;1261;106719;-86
2023/12/08 11:15:16;;;;;;;63.80;31.40;;;;;;;1.69;76.35;100528.06;131068;1257;107594;-85
2023/12/08 11:18:24;;;;;;;60.10;29.20;;;;;;;1.70;76.71;100525.20;130961;1258;108819;-85
2023/12/08 11:21:30;;;;;;;57.50;28.70;;;;;;;1.74;76.48;100524.30;131089;1254;107340;-85
2023/12/08 11:24:37;;;;;;;59.60;30.00;;;;;;;1.73;76.54;100524.33;131030;1254;107056;-85
2023/12/08 11:27:49;;;;;;;61.10;29.40;;;;;;;1.78;76.57;100529.66;130889;1260;108644;-85
2023/12/08 11:31:01;;;;;;;59.50;30.10;;;;;;;1.78;76.29;100531.95;130841;1254;107514;-85
2023/12/08 11:34:12;;;;;;;57.30;29.30;;;;;;;1.80;76.09;100535.32;130966;1254;107145;-85
2023/12/08 11:37:18;;;;;;;53.60;27.80;;;;;;;1.79;76.19;100543.11;131196;1254;106519;-85
2023/12/08 11:40:24;;;;;;;57.10;27.90;;;;;;;1.79;76.21;100543.48;130965;1255;109184;-82
2023/12/08 11:43:30;;;;;;;57.00;28.40;;;;;;;1.78;76.33;100542.63;130910;1258;106180;-83
2023/12/08 11:46:35;;;;;;;51.80;27.20;;;;;;;1.77;76.44;100539.36;131029;1258;108330;-85
2023/12/08 11:49:44;;;;;;;51.90;27.30;;;;;;;1.76;75.82;100533.80;131088;1254;108583;-85
2023/12/08 11:52:51;;;;;;;56.40;27.40;;;;;;;1.69;75.43;100534.05;131061;1254;108179;-84
2023/12/08 11:55:57;;;;;;;53.40;26.90;;;;;;;1.62;76.08;100529.70;131748;1254;107267;-83
2023/12/08 11:59:05;;;;;;;55.30;28.20;;;;;;;1.60;76.01;100523.02;131684;1254;107607;-83
2023/12/08 12:02:12;;;;;;;53.70;27.60;;;;;;;1.52;75.93;100529.20;131452;1260;238609;-83
2023/12/08 12:05:18;;;;;;;55.00;28.30;;;;;;;1.45;75.60;100529.08;131326;1254;107744;-83
2023/12/08 12:08:27;;;;;;;60.80;29.20;;;;;;;1.42;75.69;100525.09;130713;1260;107528;-84
2023/12/08 12:11:37;;;;;;;57.40;27.10;;;;;;;1.37;75.98;100519.02;130838;1254;107646;-85
2023/12/08 12:14:45;;;;;;;58.20;28.90;;;;;;;1.43;76.15;100507.51;130907;1254;107046;-85
2023/12/08 12:17:52;;;;;;;53.80;27.00;;;;;;;1.55;75.93;100493.96;131055;1261;106487;-84
2023/12/08 12:20:58;;;;;;;63.30;29.70;;;;;;;1.67;75.63;100489.61;130993;1258;107672;-83
2023/12/08 12:24:04;;;;;;;58.60;28.60;;;;;;;1.76;75.76;100488.73;131068;1254;106553;-84
2023/12/08 12:27:09;;;;;;;69.20;31.50;;;;;;;1.84;75.56;100486.52;131055;1254;106643;-84
2023/12/08 12:30:16;;;;;;;64.90;31.20;;;;;;;1.87;75.34;100488.95;131220;1259;108581;-86
2023/12/08 12:33:21;;;;;;;70.60;32.80;;;;;;;1.83;75.17;100484.83;131114;1258;107765;-84
2023/12/08 12:36:28;;;;;;;73.90;34.30;;;;;;;1.77;75.33;100483.55;131131;1254;107570;-85
2023/12/08 12:39:35;;;;;;;66.50;31.60;;;;;;;1.73;75.24;100482.08;131148;1254;108510;-86
2023/12/08 12:42:45;;;;;;;65.80;30.70;;;;;;;1.66;75.25;100486.52;131243;1254;106522;-86
2023/12/08 12:45:51;;;;;;;64.20;31.00;;;;;;;1.56;75.31;100492.33;131335;1254;108711;-86
2023/12/08 12:48:57;;;;;;;67.40;31.80;;;;;;;1.50;75.51;100489.52;131399;1254;108694;-84
2023/12/08 12:52:04;;;;;;;68.40;32.70;;;;;;;1.46;75.54;100490.29;131059;1258;108494;-85
2023/12/08 12:58:41;;;;;;;58.70;29.50;;;;;;;1.37;75.63;100490.28;127673;1293;635927;-86
2023/12/08 13:01:48;;;;;;;54.80;28.00;;;;;;;1.25;75.17;100486.60;130685;1260;106278;-85
2023/12/08 13:04:54;;;;;;;54.40;28.70;;;;;;;1.12;75.45;100489.41;131275;1269;108509;-86
2023/12/08 13:08:00;;;;;;;51.60;26.50;;;;;;;1.00;75.40;100493.23;131198;1256;106669;-85
2023/12/08 13:11:06;;;;;;;55.50;28.20;;;;;;;0.91;75.41;100495.19;131278;1254;273005;-86
2023/12/08 13:14:11;;;;;;;59.80;30.40;;;;;;;0.86;75.68;100492.14;131443;1255;106993;-86
2023/12/08 13:17:19;;;;;;;67.80;32.80;;;;;;;0.75;75.65;100489.20;132062;1247;107497;-85
2023/12/08 13:20:25;;;;;;;58.10;28.70;;;;;;;0.69;75.83;100489.03;132019;1247;108029;-85
2023/12/08 13:23:30;;;;;;;58.10;27.40;;;;;;;0.65;75.98;100491.33;132043;1250;108751;-87
2023/12/08 13:26:36;;;;;;;54.20;25.20;;;;;;;0.64;76.02;100494.34;132209;1247;107218;-86
2023/12/08 13:29:41;;;;;;;46.50;22.90;;;;;;;0.67;76.05;100495.08;132023;1247;107852;-84
2023/12/08 13:32:47;;;;;;;49.10;25.10;;;;;;;0.70;75.85;100492.11;132071;1247;108462;-87
2023/12/08 13:35:53;;;;;;;53.40;26.00;;;;;;;0.71;75.75;100499.73;131961;1250;106501;-86
2023/12/08 13:38:59;;;;;;;52.30;26.60;;;;;;;0.69;75.66;100505.14;131916;1250;106699;-86
2023/12/08 13:42:05;;;;;;;58.80;29.60;;;;;;;0.58;75.41;100510.80;132039;1248;106867;-86
2023/12/08 13:45:11;;;;;;;55.00;26.40;;;;;;;0.50;75.71;100506.30;131976;1250;106973;-85
2023/12/08 13:48:20;;;;;;;54.20;28.00;;;;;;;0.45;75.71;100510.61;131899;1248;106369;-85
2023/12/08 13:51:27;;;;;;;64.50;32.50;;;;;;;0.37;75.87;100511.91;132194;1258;108575;-85
2023/12/08 13:54:33;;;;;;;50.80;25.60;;;;;;;0.31;75.95;100507.70;131965;1251;108652;-85
2023/12/08 13:57:38;;;;;;;46.50;23.70;;;;;;;0.21;75.60;100501.42;132080;1247;108125;-86